SPY052 EPWR-EPLB
Flight info
| Callsign | SPY052 |
|---|---|
| Flight time | 0h 46m |
| Altitude | 33000 |
| Route | LUNUK DCT OVBOR DCT VAGDU DCT LODBO M857 VENES |
| Aircraft | A320/M-SDE3FGHIRWY/LB1 |
Departure
| Time | 2026-05-09 08:00 |
|---|---|
| Airport | Copernicus Wrocław Airport (EPWR) |
Arrival
| Time | 2026-05-09 08:46 |
|---|---|
| Airport | Lublin Airport (EPLB) |
| Time | Latitude | Longitude | Altitude | Speed | Heading |
|---|---|---|---|---|---|
| 2026-05-09 07:35 | 51.10839 | 16.88098 | 403 ft | 0 kts | 26° |
| 2026-05-09 07:51 | 51.10830 | 16.88091 | 403 ft | 4 kts | 26° |
| 2026-05-09 07:51 | 51.10807 | 16.88073 | 418 ft | 2 kts | 26° |
| 2026-05-09 07:51 | 51.10788 | 16.88055 | 399 ft | 4 kts | 57° |
| 2026-05-09 07:51 | 51.10782 | 16.88018 | 398 ft | 4 kts | 107° |
| 2026-05-09 07:52 | 51.10785 | 16.88006 | 398 ft | 0 kts | 116° |
| 2026-05-09 07:55 | 51.10783 | 16.88011 | 403 ft | 3 kts | 116° |
| 2026-05-09 07:55 | 51.10756 | 16.88099 | 402 ft | 10 kts | 116° |
| 2026-05-09 07:56 | 51.10723 | 16.88209 | 403 ft | 13 kts | 116° |
| 2026-05-09 07:56 | 51.10674 | 16.88368 | 403 ft | 19 kts | 116° |
| 2026-05-09 07:56 | 51.10608 | 16.88582 | 403 ft | 25 kts | 116° |
| 2026-05-09 07:56 | 51.10525 | 16.88852 | 403 ft | 30 kts | 116° |
| 2026-05-09 07:57 | 51.10431 | 16.89161 | 401 ft | 33 kts | 116° |
| 2026-05-09 07:57 | 51.10323 | 16.89512 | 403 ft | 37 kts | 116° |
| 2026-05-09 07:57 | 51.10226 | 16.89828 | 402 ft | 24 kts | 116° |
| 2026-05-09 07:57 | 51.10174 | 16.89964 | 403 ft | 11 kts | 148° |
| 2026-05-09 07:58 | 51.10106 | 16.89943 | 402 ft | 12 kts | 206° |
| 2026-05-09 07:58 | 51.10044 | 16.89894 | 403 ft | 4 kts | 206° |
| 2026-05-09 07:58 | 51.10002 | 16.89861 | 403 ft | 9 kts | 206° |
| 2026-05-09 07:58 | 51.09930 | 16.89803 | 403 ft | 14 kts | 214° |
| 2026-05-09 07:59 | 51.09937 | 16.89657 | 404 ft | 16 kts | 297° |
| 2026-05-09 07:59 | 51.09950 | 16.89615 | 404 ft | 0 kts | 296° |
| 2026-05-09 07:59 | 51.10016 | 16.89404 | 406 ft | 59 kts | 295° |
| 2026-05-09 07:59 | 51.10298 | 16.88483 | 405 ft | 123 kts | 296° |
| 2026-05-09 08:00 | 51.10747 | 16.87024 | 532 ft | 161 kts | 297° |
| 2026-05-09 08:00 | 51.11293 | 16.85389 | 1101 ft | 174 kts | 300° |
| 2026-05-09 08:00 | 51.11886 | 16.83674 | 1831 ft | 179 kts | 298° |
| 2026-05-09 08:00 | 51.12452 | 16.81814 | 2167 ft | 194 kts | 296° |
| 2026-05-09 08:01 | 51.13050 | 16.79774 | 2369 ft | 217 kts | 296° |
| 2026-05-09 08:01 | 51.13730 | 16.77468 | 2865 ft | 242 kts | 296° |
| 2026-05-09 08:01 | 51.14470 | 16.74972 | 3616 ft | 254 kts | 296° |
| 2026-05-09 08:01 | 51.15236 | 16.72403 | 4536 ft | 259 kts | 296° |
| 2026-05-09 08:02 | 51.16016 | 16.69790 | 5481 ft | 263 kts | 296° |
| 2026-05-09 08:02 | 51.16807 | 16.67158 | 6465 ft | 265 kts | 296° |
| 2026-05-09 08:02 | 51.17610 | 16.64497 | 7352 ft | 268 kts | 296° |
| 2026-05-09 08:02 | 51.18431 | 16.61809 | 8220 ft | 272 kts | 299° |
| 2026-05-09 08:03 | 51.19649 | 16.59506 | 9043 ft | 277 kts | 324° |
| 2026-05-09 08:03 | 51.21424 | 16.58319 | 9875 ft | 282 kts | 351° |
| 2026-05-09 08:03 | 51.23358 | 16.58566 | 10645 ft | 289 kts | 18° |
| 2026-05-09 08:03 | 51.25178 | 16.59992 | 11417 ft | 294 kts | 27° |
| 2026-05-09 08:04 | 51.26985 | 16.61576 | 12193 ft | 298 kts | 27° |
| 2026-05-09 08:04 | 51.28813 | 16.63194 | 12955 ft | 303 kts | 26° |
| 2026-05-09 08:04 | 51.30669 | 16.64840 | 13713 ft | 307 kts | 26° |
| 2026-05-09 08:04 | 51.32550 | 16.66512 | 14403 ft | 312 kts | 27° |
| 2026-05-09 08:05 | 51.34223 | 16.68767 | 15079 ft | 321 kts | 50° |
| 2026-05-09 08:05 | 51.35240 | 16.71973 | 15740 ft | 329 kts | 74° |
| 2026-05-09 08:05 | 51.35400 | 16.75715 | 15969 ft | 351 kts | 100° |
| 2026-05-09 08:05 | 51.34546 | 16.79463 | 16107 ft | 370 kts | 117° |
| 2026-05-09 08:06 | 51.33380 | 16.83240 | 16353 ft | 385 kts | 117° |
| 2026-05-09 08:06 | 51.32178 | 16.87114 | 16888 ft | 392 kts | 117° |
| 2026-05-09 08:06 | 51.30963 | 16.91037 | 17491 ft | 396 kts | 117° |
| 2026-05-09 08:06 | 51.29738 | 16.95002 | 18110 ft | 400 kts | 117° |
| 2026-05-09 08:07 | 51.28506 | 16.99005 | 18684 ft | 403 kts | 116° |
| 2026-05-09 08:07 | 51.27496 | 17.03203 | 19189 ft | 407 kts | 105° |
| 2026-05-09 08:07 | 51.27000 | 17.07666 | 19729 ft | 410 kts | 94° |
| 2026-05-09 08:07 | 51.27034 | 17.12231 | 20237 ft | 413 kts | 83° |
| 2026-05-09 08:08 | 51.27597 | 17.16733 | 20749 ft | 415 kts | 72° |
| 2026-05-09 08:08 | 51.28472 | 17.21134 | 21263 ft | 417 kts | 71° |
| 2026-05-09 08:08 | 51.29353 | 17.25570 | 21766 ft | 420 kts | 71° |
| 2026-05-09 08:08 | 51.30236 | 17.30040 | 22260 ft | 423 kts | 71° |
| 2026-05-09 08:09 | 51.31125 | 17.34540 | 22750 ft | 426 kts | 71° |
| 2026-05-09 08:09 | 51.32019 | 17.39073 | 23235 ft | 429 kts | 71° |
| 2026-05-09 08:09 | 51.32917 | 17.43643 | 23708 ft | 432 kts | 71° |
| 2026-05-09 08:09 | 51.33804 | 17.48184 | 24092 ft | 435 kts | 72° |
| 2026-05-09 08:10 | 51.34705 | 17.52819 | 24489 ft | 438 kts | 72° |
| 2026-05-09 08:10 | 51.35608 | 17.57481 | 24882 ft | 440 kts | 72° |
| 2026-05-09 08:10 | 51.36518 | 17.62168 | 25273 ft | 442 kts | 72° |
| 2026-05-09 08:10 | 51.37434 | 17.66878 | 25654 ft | 444 kts | 72° |
| 2026-05-09 08:11 | 51.38354 | 17.71615 | 26020 ft | 447 kts | 72° |
| 2026-05-09 08:11 | 51.39276 | 17.76370 | 26387 ft | 449 kts | 72° |
| 2026-05-09 08:11 | 51.40203 | 17.81158 | 26783 ft | 451 kts | 72° |
| 2026-05-09 08:11 | 51.41131 | 17.85968 | 27138 ft | 454 kts | 72° |
| 2026-05-09 08:12 | 51.42988 | 17.95689 | 27844 ft | 459 kts | 72° |
| 2026-05-09 08:12 | 51.43755 | 18.00659 | 28183 ft | 461 kts | 81° |
| 2026-05-09 08:12 | 51.44053 | 18.05784 | 28498 ft | 463 kts | 90° |
| 2026-05-09 08:13 | 51.43859 | 18.10937 | 28821 ft | 464 kts | 99° |
| 2026-05-09 08:13 | 51.43189 | 18.16002 | 29129 ft | 465 kts | 106° |
| 2026-05-09 08:13 | 51.42350 | 18.21018 | 29442 ft | 467 kts | 106° |
| 2026-05-09 08:13 | 51.41515 | 18.25975 | 29745 ft | 469 kts | 106° |
| 2026-05-09 08:14 | 51.40662 | 18.31037 | 30051 ft | 471 kts | 106° |
| 2026-05-09 08:14 | 51.39806 | 18.36110 | 30333 ft | 473 kts | 106° |
| 2026-05-09 08:14 | 51.38957 | 18.41143 | 30609 ft | 474 kts | 106° |
| 2026-05-09 08:14 | 51.38376 | 18.44578 | 30860 ft | 473 kts | 106° |
| 2026-05-09 08:15 | 51.37228 | 18.51303 | 31327 ft | 472 kts | 107° |
| 2026-05-09 08:15 | 51.36361 | 18.56370 | 31666 ft | 472 kts | 107° |
| 2026-05-09 08:15 | 51.35491 | 18.61428 | 32013 ft | 471 kts | 107° |
| 2026-05-09 08:15 | 51.34619 | 18.66483 | 32355 ft | 471 kts | 107° |
| 2026-05-09 08:16 | 51.33748 | 18.71533 | 32691 ft | 471 kts | 107° |
| 2026-05-09 08:16 | 51.32878 | 18.76579 | 33027 ft | 471 kts | 107° |
| 2026-05-09 08:16 | 51.32289 | 18.79990 | 33156 ft | 471 kts | 107° |
| 2026-05-09 08:16 | 51.31430 | 18.84953 | 33196 ft | 469 kts | 107° |
| 2026-05-09 08:17 | 51.29684 | 18.94968 | 33193 ft | 467 kts | 107° |
| 2026-05-09 08:17 | 51.27929 | 19.04959 | 33185 ft | 467 kts | 107° |
| 2026-05-09 08:18 | 51.26171 | 19.14938 | 33189 ft | 467 kts | 107° |
| 2026-05-09 08:18 | 51.24399 | 19.24910 | 33187 ft | 467 kts | 107° |
| 2026-05-09 08:19 | 51.22629 | 19.34872 | 33185 ft | 467 kts | 107° |
| 2026-05-09 08:19 | 51.20854 | 19.44830 | 33163 ft | 467 kts | 108° |
| 2026-05-09 08:20 | 51.19054 | 19.54785 | 33163 ft | 468 kts | 108° |
| 2026-05-09 08:20 | 51.17241 | 19.64736 | 33161 ft | 468 kts | 108° |
| 2026-05-09 08:21 | 51.15422 | 19.74695 | 33160 ft | 468 kts | 108° |
| 2026-05-09 08:21 | 51.13596 | 19.84645 | 33148 ft | 468 kts | 109° |
| 2026-05-09 08:22 | 51.11767 | 19.94609 | 33148 ft | 470 kts | 109° |
| 2026-05-09 08:22 | 51.09944 | 20.04528 | 33149 ft | 471 kts | 108° |
| 2026-05-09 08:23 | 51.08233 | 20.14591 | 33153 ft | 472 kts | 107° |
| 2026-05-09 08:23 | 51.06593 | 20.24701 | 33157 ft | 472 kts | 107° |
| 2026-05-09 08:24 | 51.04924 | 20.34801 | 33145 ft | 473 kts | 108° |
| 2026-05-09 08:24 | 51.03208 | 20.44895 | 33141 ft | 474 kts | 109° |
| 2026-05-09 08:25 | 51.01475 | 20.55001 | 33148 ft | 475 kts | 109° |
| 2026-05-09 08:25 | 50.99741 | 20.65129 | 32962 ft | 476 kts | 109° |
| 2026-05-09 08:26 | 50.98871 | 20.70196 | 32692 ft | 476 kts | 109° |
| 2026-05-09 08:26 | 50.97996 | 20.75265 | 32352 ft | 477 kts | 109° |
| 2026-05-09 08:26 | 50.97115 | 20.80355 | 31193 ft | 479 kts | 110° |
| 2026-05-09 08:26 | 50.96237 | 20.85412 | 30137 ft | 472 kts | 110° |
| 2026-05-09 08:27 | 50.95380 | 20.90361 | 29465 ft | 456 kts | 110° |
| 2026-05-09 08:27 | 50.94556 | 20.95126 | 28802 ft | 442 kts | 110° |
| 2026-05-09 08:27 | 50.93736 | 20.99827 | 28155 ft | 442 kts | 110° |
| 2026-05-09 08:27 | 50.92907 | 21.04513 | 27499 ft | 440 kts | 110° |
| 2026-05-09 08:28 | 50.92078 | 21.09172 | 26853 ft | 439 kts | 109° |
| 2026-05-09 08:28 | 50.91252 | 21.13814 | 26225 ft | 437 kts | 109° |
| 2026-05-09 08:28 | 50.90430 | 21.18438 | 25568 ft | 435 kts | 109° |
| 2026-05-09 08:28 | 50.89609 | 21.23041 | 24953 ft | 433 kts | 109° |
| 2026-05-09 08:29 | 50.88817 | 21.27636 | 24330 ft | 433 kts | 105° |
| 2026-05-09 08:29 | 50.88423 | 21.32364 | 23711 ft | 434 kts | 93° |
| 2026-05-09 08:29 | 50.88578 | 21.37125 | 23108 ft | 432 kts | 82° |
| 2026-05-09 08:29 | 50.89257 | 21.41729 | 22557 ft | 427 kts | 71° |
| 2026-05-09 08:30 | 50.90417 | 21.46024 | 22047 ft | 422 kts | 61° |
| 2026-05-09 08:30 | 50.91782 | 21.50108 | 21552 ft | 417 kts | 61° |
| 2026-05-09 08:30 | 50.93124 | 21.54149 | 21069 ft | 412 kts | 61° |
| 2026-05-09 08:30 | 50.94445 | 21.58157 | 20577 ft | 408 kts | 61° |
| 2026-05-09 08:31 | 50.95752 | 21.62133 | 20099 ft | 405 kts | 61° |
| 2026-05-09 08:31 | 50.97036 | 21.66036 | 19618 ft | 402 kts | 61° |
| 2026-05-09 08:31 | 50.98308 | 21.69899 | 19141 ft | 399 kts | 61° |
| 2026-05-09 08:31 | 50.99590 | 21.73797 | 18641 ft | 397 kts | 61° |
| 2026-05-09 08:32 | 51.00865 | 21.77677 | 18103 ft | 396 kts | 61° |
| 2026-05-09 08:32 | 51.02253 | 21.81415 | 17593 ft | 391 kts | 52° |
| 2026-05-09 08:32 | 51.06134 | 21.87224 | 16581 ft | 380 kts | 29° |
| 2026-05-09 08:33 | 51.08481 | 21.89108 | 16009 ft | 377 kts | 18° |
| 2026-05-09 08:33 | 51.10947 | 21.90476 | 15460 ft | 376 kts | 20° |
| 2026-05-09 08:33 | 51.13132 | 21.92784 | 14912 ft | 381 kts | 42° |
| 2026-05-09 08:33 | 51.14764 | 21.96061 | 14340 ft | 374 kts | 58° |
| 2026-05-09 08:34 | 51.15846 | 21.99747 | 13805 ft | 362 kts | 71° |
| 2026-05-09 08:34 | 51.16452 | 22.03585 | 13227 ft | 354 kts | 78° |
| 2026-05-09 08:34 | 51.16950 | 22.07409 | 12694 ft | 351 kts | 78° |
| 2026-05-09 08:34 | 51.17446 | 22.11233 | 12195 ft | 353 kts | 78° |
| 2026-05-09 08:35 | 51.17938 | 22.15055 | 11713 ft | 352 kts | 78° |
| 2026-05-09 08:35 | 51.18425 | 22.18886 | 11202 ft | 353 kts | 78° |
| 2026-05-09 08:35 | 51.18908 | 22.22716 | 10746 ft | 351 kts | 78° |
| 2026-05-09 08:35 | 51.19377 | 22.26466 | 10618 ft | 339 kts | 78° |
| 2026-05-09 08:36 | 51.19826 | 22.30088 | 10487 ft | 328 kts | 78° |
| 2026-05-09 08:36 | 51.20261 | 22.33594 | 10334 ft | 318 kts | 78° |
| 2026-05-09 08:36 | 51.20687 | 22.37023 | 10156 ft | 312 kts | 78° |
| 2026-05-09 08:36 | 51.21297 | 22.40330 | 10078 ft | 311 kts | 65° |
| 2026-05-09 08:37 | 51.22374 | 22.43313 | 9638 ft | 310 kts | 49° |
| 2026-05-09 08:37 | 51.23834 | 22.45783 | 9285 ft | 304 kts | 41° |
| 2026-05-09 08:37 | 51.25358 | 22.48127 | 8895 ft | 302 kts | 41° |
| 2026-05-09 08:37 | 51.26863 | 22.50464 | 8488 ft | 301 kts | 41° |
| 2026-05-09 08:38 | 51.28352 | 22.52783 | 8100 ft | 299 kts | 41° |
| 2026-05-09 08:38 | 51.29711 | 22.55221 | 7784 ft | 297 kts | 53° |
| 2026-05-09 08:38 | 51.30663 | 22.58184 | 7369 ft | 295 kts | 70° |
| 2026-05-09 08:38 | 51.31092 | 22.61315 | 6852 ft | 291 kts | 81° |
| 2026-05-09 08:39 | 51.31376 | 22.64497 | 6420 ft | 285 kts | 81° |
| 2026-05-09 08:39 | 51.31661 | 22.67548 | 6081 ft | 270 kts | 80° |
| 2026-05-09 08:39 | 51.31935 | 22.70446 | 5734 ft | 258 kts | 80° |
| 2026-05-09 08:39 | 51.32198 | 22.73219 | 5411 ft | 249 kts | 80° |
| 2026-05-09 08:40 | 51.32456 | 22.75950 | 5081 ft | 248 kts | 80° |
| 2026-05-09 08:40 | 51.32713 | 22.78685 | 4734 ft | 249 kts | 80° |
| 2026-05-09 08:40 | 51.32968 | 22.81425 | 4403 ft | 249 kts | 80° |
| 2026-05-09 08:40 | 51.33222 | 22.84166 | 4066 ft | 249 kts | 80° |
| 2026-05-09 08:41 | 51.33473 | 22.86903 | 3749 ft | 248 kts | 82° |
| 2026-05-09 08:41 | 51.33430 | 22.89652 | 3412 ft | 248 kts | 102° |
| 2026-05-09 08:41 | 51.32805 | 22.92204 | 3084 ft | 247 kts | 123° |
| 2026-05-09 08:41 | 51.31704 | 22.94203 | 2969 ft | 234 kts | 143° |
| 2026-05-09 08:42 | 51.30306 | 22.95316 | 2845 ft | 220 kts | 172° |
| 2026-05-09 08:42 | 51.28845 | 22.95178 | 2734 ft | 206 kts | 202° |
| 2026-05-09 08:42 | 51.27678 | 22.94026 | 2636 ft | 191 kts | 230° |
| 2026-05-09 08:42 | 51.27016 | 22.92334 | 2522 ft | 170 kts | 254° |
| 2026-05-09 08:43 | 51.26749 | 22.90592 | 2431 ft | 154 kts | 259° |
| 2026-05-09 08:43 | 51.26523 | 22.88989 | 2374 ft | 143 kts | 259° |
| 2026-05-09 08:43 | 51.26308 | 22.87469 | 2304 ft | 137 kts | 260° |
| 2026-05-09 08:43 | 51.26105 | 22.86030 | 2246 ft | 133 kts | 260° |
| 2026-05-09 08:44 | 51.25903 | 22.84600 | 2109 ft | 131 kts | 261° |
| 2026-05-09 08:44 | 51.25702 | 22.83184 | 1938 ft | 131 kts | 260° |
| 2026-05-09 08:44 | 51.25500 | 22.81759 | 1774 ft | 131 kts | 261° |
| 2026-05-09 08:44 | 51.25298 | 22.80342 | 1593 ft | 132 kts | 259° |
| 2026-05-09 08:45 | 51.25095 | 22.78910 | 1415 ft | 134 kts | 259° |
| 2026-05-09 08:45 | 51.24892 | 22.77472 | 1284 ft | 131 kts | 258° |
| 2026-05-09 08:45 | 51.24673 | 22.76004 | 983 ft | 136 kts | 260° |
| 2026-05-09 08:45 | 51.24479 | 22.74547 | 898 ft | 135 kts | 259° |
| 2026-05-09 08:46 | 51.24260 | 22.73112 | 669 ft | 129 kts | 261° |
| 2026-05-09 08:46 | 51.24076 | 22.71770 | 642 ft | 111 kts | 258° |
| 2026-05-09 08:46 | 51.23966 | 22.70971 | 646 ft | 52 kts | 258° |
| 2026-05-09 08:46 | 51.23921 | 22.70600 | 642 ft | 13 kts | 226° |
| 2026-05-09 08:47 | 51.23901 | 22.70591 | 640 ft | 1 kts | 169° |
| 2026-05-09 08:47 | 51.23900 | 22.70612 | 643 ft | 1 kts | 92° |
| 2026-05-09 08:47 | 51.23919 | 22.70691 | 645 ft | 14 kts | 72° |
| 2026-05-09 08:47 | 51.23942 | 22.70830 | 645 ft | 13 kts | 76° |
| 2026-05-09 08:48 | 51.23970 | 22.71028 | 650 ft | 23 kts | 77° |
| 2026-05-09 08:48 | 51.23992 | 22.71269 | 650 ft | 19 kts | 100° |
| 2026-05-09 08:48 | 51.23941 | 22.71372 | 647 ft | 5 kts | 156° |
| 2026-05-09 08:48 | 51.23916 | 22.71387 | 647 ft | 2 kts | 159° |
| 2026-05-09 08:49 | 51.23910 | 22.71390 | 648 ft | 4 kts | 163° |
| 2026-05-09 08:49 | 51.23819 | 22.71422 | 653 ft | 14 kts | 167° |
| 2026-05-09 08:49 | 51.23735 | 22.71453 | 653 ft | 9 kts | 167° |
| 2026-05-09 08:49 | 51.23679 | 22.71474 | 653 ft | 8 kts | 167° |
| 2026-05-09 08:50 | 51.23644 | 22.71487 | 653 ft | 3 kts | 167° |